Time;durP1;ratioP1;P1;durP2;ratioP2;P2;SDS_P1;SDS_P2;PMS_P1;PMS_P2;Temp;Humidity;BMP_temperature;BMP_pressure;BME280_temperature;BME280_humidity;BME280_pressure;Samples;Min_cycle;Max_cycle;Signal;HPM_P1;HPM_P2
2022/03/10 00:01:32;;;;;;;19.55;11.75;;;;;;;;;;5091424;28;20082;-67
2022/03/10 00:03:58;;;;;;;22.77;12.65;;;;;;;;;;5090941;28;20703;-67
2022/03/10 00:06:24;;;;;;;21.67;11.10;;;;;;;;;;5090212;28;20044;-67
2022/03/10 00:08:50;;;;;;;20.38;12.13;;;;;;;;;;5091697;28;20051;-67
2022/03/10 00:11:16;;;;;;;17.98;11.40;;;;;;;;;;5091068;28;20371;-67
2022/03/10 00:13:42;;;;;;;20.85;12.15;;;;;;;;;;5091493;28;20050;-67
2022/03/10 00:16:08;;;;;;;18.88;11.18;;;;;;;;;;5091643;28;20547;-67
2022/03/10 00:18:34;;;;;;;19.58;11.68;;;;;;;;;;5090822;28;20131;-67
2022/03/10 00:21:00;;;;;;;19.63;11.73;;;;;;;;;;5091597;28;20471;-67
2022/03/10 00:23:26;;;;;;;22.70;10.95;;;;;;;;;;5091525;28;20047;-67
2022/03/10 00:25:52;;;;;;;20.60;11.57;;;;;;;;;;5090762;28;20127;-67
2022/03/10 00:28:18;;;;;;;20.08;11.18;;;;;;;;;;5091273;28;20161;-67
2022/03/10 00:30:44;;;;;;;20.05;11.02;;;;;;;;;;5090986;28;20048;-67
2022/03/10 00:33:10;;;;;;;19.08;11.32;;;;;;;;;;5088141;28;20043;-67
2022/03/10 00:35:36;;;;;;;22.10;12.25;;;;;;;;;;5073134;28;20394;-67
2022/03/10 00:38:02;;;;;;;15.98;10.85;;;;;;;;;;5074899;28;20068;-67
2022/03/10 00:40:30;;;;;;;22.33;11.18;;;;;;;;;;5074676;28;20076;-67
2022/03/10 00:42:56;;;;;;;19.45;11.77;;;;;;;;;;5073967;28;20047;-67
2022/03/10 00:45:23;;;;;;;18.65;12.00;;;;;;;;;;5074871;28;20040;-67
2022/03/10 00:47:49;;;;;;;21.52;13.00;;;;;;;;;;5074911;28;20040;-67
2022/03/10 00:50:15;;;;;;;20.35;11.52;;;;;;;;;;5074140;28;20041;-67
2022/03/10 00:52:42;;;;;;;20.38;12.50;;;;;;;;;;5073584;28;20068;-67
2022/03/10 00:55:08;;;;;;;18.15;11.02;;;;;;;;;;5074702;28;20435;-67
2022/03/10 00:57:34;;;;;;;17.60;11.70;;;;;;;;;;5073683;28;20044;-67
2022/03/10 01:00:00;;;;;;;20.15;11.52;;;;;;;;;;5074485;28;20052;-67
2022/03/10 01:02:26;;;;;;;20.88;11.43;;;;;;;;;;5074512;28;20043;-67
2022/03/10 01:04:52;;;;;;;22.35;11.65;;;;;;;;;;5073616;28;20083;-67
2022/03/10 01:07:18;;;;;;;20.63;11.40;;;;;;;;;;5074411;28;20047;-67
2022/03/10 01:09:44;;;;;;;21.83;11.07;;;;;;;;;;5074343;28;20040;-67
2022/03/10 01:12:10;;;;;;;20.23;12.13;;;;;;;;;;5073523;28;20059;-67
2022/03/10 01:14:36;;;;;;;20.05;11.20;;;;;;;;;;5074372;28;20044;-67
2022/03/10 01:17:03;;;;;;;22.10;11.70;;;;;;;;;;5074192;28;20040;-67
2022/03/10 01:19:29;;;;;;;21.45;12.30;;;;;;;;;;5073662;28;20044;-67
2022/03/10 01:21:55;;;;;;;21.02;12.05;;;;;;;;;;5074292;28;20095;-67
2022/03/10 01:24:21;;;;;;;18.10;11.18;;;;;;;;;;5074186;28;20072;-67
2022/03/10 01:26:47;;;;;;;22.52;11.80;;;;;;;;;;5073221;28;20128;-67
2022/03/10 01:29:13;;;;;;;22.30;12.43;;;;;;;;;;5073748;28;20588;-67
2022/03/10 01:31:40;;;;;;;22.17;11.00;;;;;;;;;;5073933;28;20044;-67
2022/03/10 01:34:06;;;;;;;17.88;11.18;;;;;;;;;;5085092;28;20493;-67
2022/03/10 01:36:32;;;;;;;21.38;11.65;;;;;;;;;;5094047;28;20050;-67
2022/03/10 01:38:58;;;;;;;22.15;12.05;;;;;;;;;;5093900;28;20047;-67
2022/03/10 01:41:24;;;;;;;20.92;10.73;;;;;;;;;;5093319;28;20439;-67
2022/03/10 01:43:57;;;;;;;21.00;11.32;;;;;;;;;;5093735;28;20059;-67
2022/03/10 01:46:23;;;;;;;23.90;12.35;;;;;;;;;;5092890;28;20120;-67
2022/03/10 01:48:49;;;;;;;18.10;11.98;;;;;;;;;;5093125;28;20032;-67
2022/03/10 01:51:15;;;;;;;19.20;11.93;;;;;;;;;;5093966;28;20381;-67
2022/03/10 01:53:42;;;;;;;20.98;12.60;;;;;;;;;;5093743;28;20040;-67
2022/03/10 01:56:09;;;;;;;19.63;12.55;;;;;;;;;;5093087;28;20043;-67
2022/03/10 01:58:36;;;;;;;22.40;12.45;;;;;;;;;;5093610;28;20036;-67
2022/03/10 02:01:03;;;;;;;18.75;11.52;;;;;;;;;;5093609;28;20036;-67
2022/03/10 02:03:29;;;;;;;22.30;11.48;;;;;;;;;;5092884;28;20118;-67
2022/03/10 02:05:55;;;;;;;17.67;11.02;;;;;;;;;;5093570;28;20419;-67
2022/03/10 02:11:06;;;;;;;19.13;13.25;;;;;;;;;;5092842;28;20068;-67
2022/03/10 02:13:33;;;;;;;19.85;11.82;;;;;;;;;;5093409;28;20043;-67
2022/03/10 02:18:43;;;;;;;19.90;11.35;;;;;;;;;;5092532;28;20119;-67
2022/03/10 02:21:10;;;;;;;18.95;11.70;;;;;;;;;;5093069;28;20032;-67
2022/03/10 02:23:36;;;;;;;21.98;12.50;;;;;;;;;;5093265;28;20494;-67
2022/03/10 02:26:02;;;;;;;21.88;11.90;;;;;;;;;;5092091;28;20044;-67
2022/03/10 02:28:28;;;;;;;18.42;11.43;;;;;;;;;;5092920;28;20036;-67
2022/03/10 02:30:55;;;;;;;20.63;12.30;;;;;;;;;;5092472;28;20051;-67
2022/03/10 02:33:21;;;;;;;26.10;12.68;;;;;;;;;;5086728;28;20036;-67
2022/03/10 02:35:47;;;;;;;22.73;13.13;;;;;;;;;;5072232;28;20040;-67
2022/03/10 02:38:18;;;;;;;19.40;11.63;;;;;;;;;;5072366;28;20045;-67
2022/03/10 02:40:53;;;;;;;22.85;12.18;;;;;;;;;;5071460;28;20036;-67
2022/03/10 02:43:19;;;;;;;22.70;11.95;;;;;;;;;;5072558;28;20036;-67
2022/03/10 02:45:45;;;;;;;21.48;12.32;;;;;;;;;;5072204;28;20040;-67
2022/03/10 02:48:12;;;;;;;21.67;12.63;;;;;;;;;;5071831;28;20124;-67
2022/03/10 02:50:38;;;;;;;23.35;13.13;;;;;;;;;;5072407;28;20044;-67
2022/03/10 02:53:05;;;;;;;22.15;12.52;;;;;;;;;;5072122;28;20068;-67
2022/03/10 02:55:31;;;;;;;23.27;13.00;;;;;;;;;;5071628;28;20514;-67
2022/03/10 02:57:57;;;;;;;22.10;12.48;;;;;;;;;;5072195;28;20044;-67
2022/03/10 03:00:24;;;;;;;21.27;11.52;;;;;;;;;;5072083;28;20043;-67
2022/03/10 03:02:50;;;;;;;25.85;12.43;;;;;;;;;;5071528;28;20078;-67
2022/03/10 03:05:16;;;;;;;18.17;11.60;;;;;;;;;;5071860;28;20388;-67
2022/03/10 03:07:43;;;;;;;22.38;13.23;;;;;;;;;;5072224;28;20371;-67
2022/03/10 03:10:09;;;;;;;25.55;13.02;;;;;;;;;;5071497;28;20044;-67
2022/03/10 03:12:43;;;;;;;22.80;12.82;;;;;;;;;;5070707;28;20520;-67
2022/03/10 03:15:10;;;;;;;21.65;12.05;;;;;;;;;;5072130;28;20123;-67
2022/03/10 03:17:36;;;;;;;21.05;12.40;;;;;;;;;;5071265;28;20041;-67
2022/03/10 03:20:04;;;;;;;21.38;13.32;;;;;;;;;;5071820;28;20048;-66
2022/03/10 03:22:31;;;;;;;23.05;13.52;;;;;;;;;;5071653;28;20052;-66
2022/03/10 03:24:57;;;;;;;21.75;12.32;;;;;;;;;;5071331;28;20045;-67
2022/03/10 03:27:23;;;;;;;23.38;12.63;;;;;;;;;;5071581;28;20071;-67
2022/03/10 03:29:49;;;;;;;26.20;12.93;;;;;;;;;;5071389;28;20108;-67
2022/03/10 03:32:15;;;;;;;29.48;12.55;;;;;;;;;;5070962;28;20048;-67
2022/03/10 03:34:41;;;;;;;22.15;11.95;;;;;;;;;;5088242;28;20052;-67
2022/03/10 03:37:07;;;;;;;20.13;12.57;;;;;;;;;;5091843;28;20040;-67
2022/03/10 03:39:33;;;;;;;20.98;11.98;;;;;;;;;;5091052;28;20040;-67
2022/03/10 03:41:59;;;;;;;25.40;12.00;;;;;;;;;;5091910;28;20430;-67
2022/03/10 03:44:25;;;;;;;23.38;12.48;;;;;;;;;;5091944;28;20402;-67
2022/03/10 03:46:51;;;;;;;20.88;12.43;;;;;;;;;;5091081;28;20051;-67
2022/03/10 03:49:18;;;;;;;23.67;13.07;;;;;;;;;;5091907;28;20066;-67
2022/03/10 03:51:44;;;;;;;22.92;13.68;;;;;;;;;;5091719;28;20090;-67
2022/03/10 03:54:10;;;;;;;24.20;12.82;;;;;;;;;;5090872;28;20265;-67
2022/03/10 03:56:37;;;;;;;20.73;12.50;;;;;;;;;;5091613;28;20445;-67
2022/03/10 03:59:03;;;;;;;21.65;12.73;;;;;;;;;;5091736;28;20047;-67
2022/03/10 04:01:29;;;;;;;23.15;13.10;;;;;;;;;;5090925;28;20135;-67
2022/03/10 04:03:56;;;;;;;24.45;13.38;;;;;;;;;;5091741;28;20101;-67
2022/03/10 04:06:22;;;;;;;23.15;12.32;;;;;;;;;;5091275;28;20206;-67
2022/03/10 04:08:48;;;;;;;20.45;11.65;;;;;;;;;;5092751;28;20062;-67
2022/03/10 04:11:14;;;;;;;20.90;11.85;;;;;;;;;;5095796;28;20036;-67
2022/03/10 04:13:41;;;;;;;20.88;12.38;;;;;;;;;;5095706;28;20131;-67
2022/03/10 04:16:07;;;;;;;21.75;13.20;;;;;;;;;;5093359;28;20051;-67
2022/03/10 04:18:33;;;;;;;23.73;12.38;;;;;;;;;;5095616;28;20081;-67
2022/03/10 04:20:59;;;;;;;21.35;12.27;;;;;;;;;;5095474;28;20048;-67
2022/03/10 04:23:29;;;;;;;20.38;12.35;;;;;;;;;;5094959;28;20557;-67
2022/03/10 04:25:56;;;;;;;26.48;12.77;;;;;;;;;;5095373;28;20435;-67
2022/03/10 04:28:22;;;;;;;23.33;12.75;;;;;;;;;;5095154;28;20032;-67
2022/03/10 04:30:49;;;;;;;21.38;12.27;;;;;;;;;;5094401;28;20064;-67
2022/03/10 04:33:16;;;;;;;26.20;12.60;;;;;;;;;;5090255;28;20037;-67
2022/03/10 04:35:43;;;;;;;22.02;11.82;;;;;;;;;;5075011;28;20036;-67
2022/03/10 04:38:10;;;;;;;19.38;11.65;;;;;;;;;;5072619;28;20462;-67
2022/03/10 04:40:37;;;;;;;21.98;12.25;;;;;;;;;;5075015;28;20036;-67
2022/03/10 04:43:03;;;;;;;24.17;11.75;;;;;;;;;;5074647;28;20036;-67
2022/03/10 04:45:29;;;;;;;21.42;12.02;;;;;;;;;;5073873;28;20048;-67
2022/03/10 04:47:55;;;;;;;21.23;12.63;;;;;;;;;;5074503;28;20119;-67
2022/03/10 04:50:22;;;;;;;20.85;11.57;;;;;;;;;;5074811;28;20129;-67
2022/03/10 04:52:48;;;;;;;24.15;12.82;;;;;;;;;;5074156;28;20036;-67
2022/03/10 04:55:14;;;;;;;21.45;11.27;;;;;;;;;;5074293;28;20072;-67
2022/03/10 04:57:40;;;;;;;23.27;11.52;;;;;;;;;;5074218;28;20052;-67
2022/03/10 05:00:11;;;;;;;21.38;11.20;;;;;;;;;;5073852;28;20093;-67
2022/03/10 05:02:40;;;;;;;20.15;11.15;;;;;;;;;;5074250;28;20044;-67
2022/03/10 05:05:07;;;;;;;19.60;11.10;;;;;;;;;;5074354;28;20083;-67
2022/03/10 05:07:33;;;;;;;20.08;11.52;;;;;;;;;;5073129;28;20041;-67
2022/03/10 05:09:59;;;;;;;22.20;12.02;;;;;;;;;;5074283;28;20043;-67
2022/03/10 05:12:26;;;;;;;19.67;10.85;;;;;;;;;;5074376;28;20044;-67
2022/03/10 05:14:52;;;;;;;19.08;11.40;;;;;;;;;;5073613;28;20045;-67
2022/03/10 05:17:18;;;;;;;21.77;11.23;;;;;;;;;;5072895;28;20068;-67
2022/03/10 05:19:44;;;;;;;21.58;11.07;;;;;;;;;;5072787;28;20041;-67
2022/03/10 05:22:10;;;;;;;19.27;11.15;;;;;;;;;;5073224;28;20135;-67
2022/03/10 05:24:36;;;;;;;18.98;11.50;;;;;;;;;;5074187;28;20097;-67
2022/03/10 05:27:02;;;;;;;22.80;12.40;;;;;;;;;;5073723;28;20044;-67
2022/03/10 05:29:28;;;;;;;20.27;11.77;;;;;;;;;;5073100;28;20071;-67
2022/03/10 05:31:54;;;;;;;22.30;11.88;;;;;;;;;;5073609;28;20044;-67
2022/03/10 05:34:20;;;;;;;19.02;10.35;;;;;;;;;;5087413;28;20051;-67
2022/03/10 05:36:46;;;;;;;20.58;11.40;;;;;;;;;;5093316;28;20406;-67
2022/03/10 05:39:12;;;;;;;21.33;10.75;;;;;;;;;;5093639;28;20047;-67
2022/03/10 05:41:38;;;;;;;15.90;9.77;;;;;;;;;;5094012;28;20535;-67
2022/03/10 05:44:04;;;;;;;18.45;10.65;;;;;;;;;;5093469;28;20120;-67
2022/03/10 05:46:30;;;;;;;20.83;11.32;;;;;;;;;;5093167;28;20044;-67
2022/03/10 05:48:56;;;;;;;21.67;11.38;;;;;;;;;;5093946;28;20039;-67
2022/03/10 05:51:23;;;;;;;22.70;11.77;;;;;;;;;;5093720;28;20122;-67
2022/03/10 05:53:51;;;;;;;20.70;12.00;;;;;;;;;;5092864;28;20120;-67
2022/03/10 05:56:18;;;;;;;21.58;11.25;;;;;;;;;;5093680;28;20044;-67
2022/03/10 05:58:44;;;;;;;19.13;11.07;;;;;;;;;;5093480;28;20048;-67
2022/03/10 06:01:11;;;;;;;17.83;10.82;;;;;;;;;;5092926;28;20196;-67
2022/03/10 06:03:37;;;;;;;22.08;11.40;;;;;;;;;;5093490;28;20116;-67
2022/03/10 06:06:03;;;;;;;20.10;10.85;;;;;;;;;;5093245;28;20475;-67
2022/03/10 06:08:29;;;;;;;21.98;10.52;;;;;;;;;;5092730;28;20035;-67
2022/03/10 06:10:56;;;;;;;20.67;10.93;;;;;;;;;;5093432;28;20506;-67
2022/03/10 06:13:22;;;;;;;18.52;10.85;;;;;;;;;;5093231;28;20039;-67
2022/03/10 06:15:48;;;;;;;20.70;10.57;;;;;;;;;;5092276;28;20386;-67
2022/03/10 06:18:14;;;;;;;21.08;11.55;;;;;;;;;;5093136;28;20032;-67
2022/03/10 06:20:40;;;;;;;20.02;11.43;;;;;;;;;;5093243;28;20040;-67
2022/03/10 06:23:06;;;;;;;22.60;11.93;;;;;;;;;;5092511;28;20482;-67
2022/03/10 06:25:32;;;;;;;21.50;11.18;;;;;;;;;;5091470;28;20123;-67
2022/03/10 06:27:58;;;;;;;18.50;11.45;;;;;;;;;;5093017;28;20064;-67
2022/03/10 06:30:24;;;;;;;18.80;10.35;;;;;;;;;;5091798;28;20055;-67
2022/03/10 06:32:50;;;;;;;21.55;10.85;;;;;;;;;;5091409;28;20036;-67
2022/03/10 06:35:16;;;;;;;19.40;11.57;;;;;;;;;;5072620;28;20028;-67
2022/03/10 06:37:42;;;;;;;21.05;11.77;;;;;;;;;;5071723;28;20051;-67
2022/03/10 06:40:09;;;;;;;22.33;12.00;;;;;;;;;;5072626;28;20048;-67
2022/03/10 06:42:35;;;;;;;22.88;12.05;;;;;;;;;;5072567;28;20109;-67
2022/03/10 06:45:01;;;;;;;16.38;10.95;;;;;;;;;;5071887;28;20041;-67
2022/03/10 06:47:27;;;;;;;23.73;11.77;;;;;;;;;;5072321;28;20032;-67
2022/03/10 06:49:53;;;;;;;20.08;11.27;;;;;;;;;;5072226;28;20119;-67
2022/03/10 06:52:20;;;;;;;20.45;11.90;;;;;;;;;;5071780;28;20043;-67
2022/03/10 06:54:46;;;;;;;20.05;12.00;;;;;;;;;;5072431;28;20043;-67
2022/03/10 06:57:13;;;;;;;19.75;11.63;;;;;;;;;;5072166;28;20068;-67
2022/03/10 06:59:39;;;;;;;24.77;11.80;;;;;;;;;;5071541;28;20545;-67
2022/03/10 07:02:05;;;;;;;21.58;11.65;;;;;;;;;;5071982;28;20040;-67
2022/03/10 07:04:31;;;;;;;19.50;11.45;;;;;;;;;;5072289;28;20417;-67
2022/03/10 07:06:57;;;;;;;20.02;11.77;;;;;;;;;;5071321;28;20048;-67
2022/03/10 07:09:23;;;;;;;20.35;11.63;;;;;;;;;;5071933;28;20383;-67
2022/03/10 07:11:49;;;;;;;20.48;12.20;;;;;;;;;;5072219;28;20777;-67
2022/03/10 07:14:15;;;;;;;19.70;11.98;;;;;;;;;;5071481;28;20344;-67
2022/03/10 07:16:43;;;;;;;22.80;11.90;;;;;;;;;;5071987;28;20536;-67
2022/03/10 07:19:10;;;;;;;24.10;11.70;;;;;;;;;;5071990;28;20417;-67
2022/03/10 07:21:39;;;;;;;30.33;14.45;;;;;;;;;;5071442;28;20463;-67
2022/03/10 07:24:06;;;;;;;27.75;13.63;;;;;;;;;;5073656;28;20051;-70
2022/03/10 07:26:33;;;;;;;22.45;11.65;;;;;;;;;;5091302;28;20409;-68
2022/03/10 07:28:59;;;;;;;24.77;13.30;;;;;;;;;;5090435;28;20044;-68
2022/03/10 07:31:32;;;;;;;21.58;11.82;;;;;;;;;;5090126;28;20050;-68
2022/03/10 07:33:58;;;;;;;20.85;12.05;;;;;;;;;;5078898;28;20127;-69
2022/03/10 07:36:24;;;;;;;21.23;11.80;;;;;;;;;;5081214;28;20048;-68
2022/03/10 07:38:50;;;;;;;23.25;13.00;;;;;;;;;;5077889;28;20470;-69
2022/03/10 07:41:16;;;;;;;19.85;12.95;;;;;;;;;;5082042;28;20040;-69
2022/03/10 07:43:43;;;;;;;20.45;11.80;;;;;;;;;;5088282;28;20502;-69
2022/03/10 07:46:09;;;;;;;19.67;11.73;;;;;;;;;;5089723;28;20126;-69
2022/03/10 07:48:35;;;;;;;24.58;12.45;;;;;;;;;;5068728;28;20720;-68
2022/03/10 07:51:01;;;;;;;23.30;12.45;;;;;;;;;;5089541;28;20380;-68
2022/03/10 07:53:27;;;;;;;18.60;11.82;;;;;;;;;;5089129;28;20502;-70
2022/03/10 07:55:56;;;;;;;19.30;12.13;;;;;;;;;;5071581;28;20047;-71
2022/03/10 07:58:29;;;;;;;20.63;12.30;;;;;;;;;;5090039;28;20040;-70
2022/03/10 08:00:57;;;;;;;20.48;11.40;;;;;;;;;;5088863;28;20394;-68
2022/03/10 08:03:23;;;;;;;22.50;12.60;;;;;;;;;;5090120;28;20067;-69
2022/03/10 08:05:51;;;;;;;22.67;12.43;;;;;;;;;;5089344;28;20036;-68
2022/03/10 08:08:18;;;;;;;24.23;13.73;;;;;;;;;;5090763;28;20115;-69
2022/03/10 08:10:45;;;;;;;20.20;12.38;;;;;;;;;;5088795;28;20072;-68
2022/03/10 08:13:11;;;;;;;23.10;11.93;;;;;;;;;;5089892;28;20050;-69
2022/03/10 08:15:37;;;;;;;21.17;12.38;;;;;;;;;;5087451;28;20036;-67
2022/03/10 08:18:03;;;;;;;23.15;13.15;;;;;;;;;;5090369;28;20052;-68
2022/03/10 08:20:29;;;;;;;22.95;12.13;;;;;;;;;;5088192;28;20040;-68
2022/03/10 08:22:55;;;;;;;20.10;12.77;;;;;;;;;;5090622;28;20089;-68
2022/03/10 08:25:21;;;;;;;30.48;13.45;;;;;;;;;;5090394;28;20040;-68
2022/03/10 08:27:47;;;;;;;20.48;11.32;;;;;;;;;;5089410;28;20047;-69
2022/03/10 08:30:14;;;;;;;23.65;12.27;;;;;;;;;;5090486;28;20053;-69
2022/03/10 08:32:41;;;;;;;22.75;12.43;;;;;;;;;;5088962;28;20259;-68
2022/03/10 08:35:07;;;;;;;19.85;12.32;;;;;;;;;;5084404;28;20126;-67
2022/03/10 08:37:33;;;;;;;21.55;13.15;;;;;;;;;;5090745;28;20101;-66
2022/03/10 08:39:59;;;;;;;21.35;12.18;;;;;;;;;;5091200;28;20040;-68
2022/03/10 08:42:26;;;;;;;22.60;11.82;;;;;;;;;;5089388;28;20044;-68
2022/03/10 08:44:52;;;;;;;21.33;12.77;;;;;;;;;;5090587;28;20051;-69
2022/03/10 08:47:18;;;;;;;20.42;13.10;;;;;;;;;;5088611;28;20661;-68
2022/03/10 08:49:45;;;;;;;24.75;13.23;;;;;;;;;;5089826;28;20040;-69
2022/03/10 08:52:11;;;;;;;21.42;12.43;;;;;;;;;;5090289;28;20044;-68
2022/03/10 08:54:37;;;;;;;20.58;12.60;;;;;;;;;;5092172;28;20583;-67
2022/03/10 08:57:04;;;;;;;20.85;12.05;;;;;;;;;;5093655;28;20523;-68
2022/03/10 08:59:30;;;;;;;22.00;12.57;;;;;;;;;;5092664;28;20067;-68
2022/03/10 09:01:57;;;;;;;19.08;11.73;;;;;;;;;;5095178;28;20478;-69
2022/03/10 09:04:23;;;;;;;23.95;12.10;;;;;;;;;;5093422;28;20486;-69
2022/03/10 09:06:49;;;;;;;20.40;11.93;;;;;;;;;;5093029;28;20043;-69
2022/03/10 09:09:16;;;;;;;19.30;11.93;;;;;;;;;;5093966;28;20040;-69
2022/03/10 09:11:42;;;;;;;22.00;12.95;;;;;;;;;;5093542;28;20040;-68
2022/03/10 09:14:08;;;;;;;21.20;13.05;;;;;;;;;;5094338;28;20451;-70
2022/03/10 09:16:34;;;;;;;21.52;12.48;;;;;;;;;;5093826;28;20440;-70
2022/03/10 09:19:00;;;;;;;21.65;13.13;;;;;;;;;;5092310;28;20684;-71
2022/03/10 09:21:26;;;;;;;22.10;12.40;;;;;;;;;;5092821;28;20044;-70
2022/03/10 09:23:53;;;;;;;21.50;12.13;;;;;;;;;;5093851;28;20040;-69
2022/03/10 09:26:19;;;;;;;20.98;12.15;;;;;;;;;;5093250;28;20412;-68
2022/03/10 09:28:45;;;;;;;23.05;11.93;;;;;;;;;;5093327;28;20032;-69
2022/03/10 09:31:12;;;;;;;22.38;12.50;;;;;;;;;;5093795;28;20051;-66
2022/03/10 09:33:40;;;;;;;19.50;12.50;;;;;;;;;;5093156;28;20111;-67
2022/03/10 09:36:06;;;;;;;24.20;12.73;;;;;;;;;;5092287;28;20043;-69
2022/03/10 09:38:32;;;;;;;21.35;12.00;;;;;;;;;;5092068;28;20047;-68
2022/03/10 09:40:58;;;;;;;20.67;13.02;;;;;;;;;;5092675;28;20044;-70
2022/03/10 09:43:28;;;;;;;28.20;12.38;;;;;;;;;;5093781;28;20052;-69
2022/03/10 09:45:56;;;;;;;22.08;12.52;;;;;;;;;;5092857;28;20375;-69
2022/03/10 09:48:22;;;;;;;25.58;12.23;;;;;;;;;;5091902;28;20118;-70
2022/03/10 09:50:49;;;;;;;20.77;12.60;;;;;;;;;;5091294;28;20055;-71
2022/03/10 09:53:15;;;;;;;27.70;12.45;;;;;;;;;;5091747;28;20361;-71
2022/03/10 09:55:41;;;;;;;19.42;12.93;;;;;;;;;;5091570;28;20048;-71
2022/03/10 09:58:08;;;;;;;21.42;12.85;;;;;;;;;;5091577;28;20076;-69
2022/03/10 10:00:34;;;;;;;19.55;12.63;;;;;;;;;;5092547;28;20032;-70
2022/03/10 10:03:00;;;;;;;21.40;12.45;;;;;;;;;;5091674;28;20123;-70
2022/03/10 10:05:31;;;;;;;22.00;12.68;;;;;;;;;;5091812;28;20097;-69
2022/03/10 10:08:05;;;;;;;23.07;12.27;;;;;;;;;;5074264;28;20444;-69
2022/03/10 10:10:32;;;;;;;22.17;12.98;;;;;;;;;;5091423;28;20606;-71
2022/03/10 10:13:01;;;;;;;20.27;12.43;;;;;;;;;;5091176;28;20739;-69
2022/03/10 10:15:32;;;;;;;21.98;12.88;;;;;;;;;;5093130;28;20401;-68
2022/03/10 10:17:59;;;;;;;20.63;12.73;;;;;;;;;;5091941;28;20573;-70
2022/03/10 10:20:30;;;;;;;21.73;12.38;;;;;;;;;;5092835;28;20055;-69
2022/03/10 10:22:56;;;;;;;21.83;13.10;;;;;;;;;;5091877;28;20052;-68
2022/03/10 10:25:23;;;;;;;21.20;12.48;;;;;;;;;;5092476;28;20044;-68
2022/03/10 10:27:49;;;;;;;24.98;13.68;;;;;;;;;;5092409;28;20058;-70
2022/03/10 10:30:15;;;;;;;22.15;13.45;;;;;;;;;;5092592;28;20663;-70
2022/03/10 10:32:45;;;;;;;22.65;12.95;;;;;;;;;;5091600;28;20043;-68
2022/03/10 10:35:13;;;;;;;25.70;14.57;;;;;;;;;;5070891;28;20089;-68
2022/03/10 10:37:42;;;;;;;23.63;14.23;;;;;;;;;;5087165;28;20086;-66
2022/03/10 10:40:09;;;;;;;23.40;12.50;;;;;;;;;;5092206;28;20044;-70
2022/03/10 10:42:37;;;;;;;21.52;13.35;;;;;;;;;;5091364;28;20051;-69
2022/03/10 10:45:23;;;;;;;21.05;13.77;;;;;;;;;;5090192;28;20036;-69
2022/03/10 10:48:05;;;;;;;22.25;13.68;;;;;;;;;;5090889;28;20576;-70
2022/03/10 10:50:32;;;;;;;22.35;13.43;;;;;;;;;;5092495;28;20043;-70
2022/03/10 10:52:58;;;;;;;22.02;13.43;;;;;;;;;;5090584;28;20063;-68
2022/03/10 10:55:32;;;;;;;23.95;13.68;;;;;;;;;;5090418;28;20044;-69
2022/03/10 10:58:04;;;;;;;21.73;13.75;;;;;;;;;;5092133;28;20044;-70
2022/03/10 11:00:39;;;;;;;22.63;12.65;;;;;;;;;;5090568;28;20450;-71
2022/03/10 11:03:18;;;;;;;27.10;13.50;;;;;;;;;;5090028;28;20440;-72
2022/03/10 11:05:44;;;;;;;24.30;14.43;;;;;;;;;;5090277;28;20130;-71
2022/03/10 11:08:10;;;;;;;23.52;13.52;;;;;;;;;;5090541;28;20063;-69
2022/03/10 11:10:36;;;;;;;22.75;13.73;;;;;;;;;;5091533;28;20047;-70
2022/03/10 11:13:02;;;;;;;24.85;13.77;;;;;;;;;;5090410;28;20036;-70
2022/03/10 11:15:28;;;;;;;27.67;13.70;;;;;;;;;;5090466;28;20046;-69
2022/03/10 11:17:54;;;;;;;19.90;13.18;;;;;;;;;;5089391;28;20398;-71
2022/03/10 11:20:21;;;;;;;23.17;13.82;;;;;;;;;;5091435;28;20127;-70
2022/03/10 11:23:06;;;;;;;24.90;13.30;;;;;;;;;;5090222;28;20044;-70
2022/03/10 11:25:54;;;;;;;20.02;13.60;;;;;;;;;;5072786;28;20611;-71
2022/03/10 11:28:27;;;;;;;22.25;13.65;;;;;;;;;;5091406;28;20081;-70
2022/03/10 11:31:00;;;;;;;22.15;13.43;;;;;;;;;;5089942;28;20060;-69
2022/03/10 11:33:32;;;;;;;21.65;13.35;;;;;;;;;;5090458;28;20064;-70
2022/03/10 11:35:58;;;;;;;23.85;14.57;;;;;;;;;;5091236;28;20036;-70
2022/03/10 11:38:51;;;;;;;24.17;14.57;;;;;;;;;;5091664;28;20036;-70
2022/03/10 11:41:17;;;;;;;18.80;12.70;;;;;;;;;;5079853;28;20040;-70
2022/03/10 11:43:56;;;;;;;24.23;14.10;;;;;;;;;;5090800;28;20482;-70
2022/03/10 11:46:23;;;;;;;27.52;15.23;;;;;;;;;;5090765;28;20047;-70
2022/03/10 11:48:59;;;;;;;25.58;14.98;;;;;;;;;;5090472;28;20042;-68
2022/03/10 11:51:40;;;;;;;23.88;14.55;;;;;;;;;;5091265;28;20069;-68
2022/03/10 11:54:07;;;;;;;25.08;14.30;;;;;;;;;;5090816;28;20540;-70
2022/03/10 11:56:34;;;;;;;23.67;14.30;;;;;;;;;;5090462;28;20584;-70
2022/03/10 11:59:20;;;;;;;21.35;13.85;;;;;;;;;;5090964;28;20044;-68
2022/03/10 12:01:46;;;;;;;23.95;15.00;;;;;;;;;;5084624;28;20127;-68
2022/03/10 12:04:22;;;;;;;22.65;14.15;;;;;;;;;;5091088;28;20058;-68
2022/03/10 12:06:55;;;;;;;29.92;14.95;;;;;;;;;;5090571;28;20135;-69
2022/03/10 12:09:26;;;;;;;25.83;15.60;;;;;;;;;;5081974;28;20399;-71
2022/03/10 12:11:52;;;;;;;27.27;14.85;;;;;;;;;;5080082;28;20483;-67
2022/03/10 12:14:31;;;;;;;24.00;15.63;;;;;;;;;;5083789;28;20123;-66
2022/03/10 12:16:57;;;;;;;24.10;15.43;;;;;;;;;;5072432;28;20486;-67
2022/03/10 12:19:42;;;;;;;25.30;15.30;;;;;;;;;;5069363;28;20380;-68
2022/03/10 12:22:10;;;;;;;22.88;14.35;;;;;;;;;;5086609;28;20085;-68
2022/03/10 12:24:36;;;;;;;23.40;14.65;;;;;;;;;;5084197;28;20150;-66
2022/03/10 12:27:02;;;;;;;24.15;14.45;;;;;;;;;;5081369;28;20060;-67
2022/03/10 12:29:31;;;;;;;27.50;15.70;;;;;;;;;;5091822;28;20101;-66
2022/03/10 12:32:04;;;;;;;24.23;14.07;;;;;;;;;;5094074;28;20101;-69
2022/03/10 12:34:30;;;;;;;59.65;18.25;;;;;;;;;;5094605;28;20071;-69
2022/03/10 12:36:59;;;;;;;24.50;15.25;;;;;;;;;;5093946;28;20082;-70
2022/03/10 12:39:27;;;;;;;22.48;14.95;;;;;;;;;;5077178;28;20041;-69
2022/03/10 12:42:12;;;;;;;26.80;15.27;;;;;;;;;;5109229;28;20054;-68
2022/03/10 12:44:44;;;;;;;25.63;15.60;;;;;;;;;;5095424;28;20087;-68
2022/03/10 12:47:10;;;;;;;23.95;15.18;;;;;;;;;;5094710;28;20552;-69
2022/03/10 12:49:38;;;;;;;25.05;15.13;;;;;;;;;;5108474;28;20035;-68
2022/03/10 12:52:11;;;;;;;22.20;14.15;;;;;;;;;;5062374;28;20093;-69
2022/03/10 12:54:37;;;;;;;24.17;15.57;;;;;;;;;;5094234;28;20454;-68
2022/03/10 12:57:05;;;;;;;25.67;14.40;;;;;;;;;;5093515;28;20490;-68
2022/03/10 12:59:33;;;;;;;22.90;14.40;;;;;;;;;;5092609;28;20048;-67
2022/03/10 13:02:16;;;;;;;25.63;15.30;;;;;;;;;;5102713;28;20059;-68
2022/03/10 13:04:58;;;;;;;24.55;15.23;;;;;;;;;;5094477;28;20059;-68
2022/03/10 13:07:25;;;;;;;22.95;14.82;;;;;;;;;;5086156;28;20152;-66
2022/03/10 13:09:55;;;;;;;23.30;14.52;;;;;;;;;;5101861;28;20043;-68
2022/03/10 13:12:32;;;;;;;22.85;14.80;;;;;;;;;;5072380;28;20059;-68
2022/03/10 13:14:59;;;;;;;23.88;14.75;;;;;;;;;;5072485;28;20056;-65
2022/03/10 13:17:32;;;;;;;24.52;13.75;;;;;;;;;;5077869;28;20040;-70
2022/03/10 13:19:58;;;;;;;23.35;14.55;;;;;;;;;;5072559;28;20048;-70
2022/03/10 13:22:24;;;;;;;27.63;14.82;;;;;;;;;;5089898;28;20044;-69
2022/03/10 13:24:52;;;;;;;22.23;14.18;;;;;;;;;;5092713;28;20054;-68
2022/03/10 13:27:23;;;;;;;25.20;14.75;;;;;;;;;;5087886;28;20043;-67
2022/03/10 13:29:52;;;;;;;24.30;14.38;;;;;;;;;;5088479;28;20047;-68
2022/03/10 13:32:19;;;;;;;22.63;14.48;;;;;;;;;;5092981;28;20544;-68
2022/03/10 13:34:45;;;;;;;23.65;14.48;;;;;;;;;;5093310;28;20036;-69
2022/03/10 13:37:12;;;;;;;23.63;14.60;;;;;;;;;;5093236;28;20097;-70
2022/03/10 13:39:39;;;;;;;21.90;15.10;;;;;;;;;;5092930;28;20032;-70
2022/03/10 13:42:08;;;;;;;22.83;14.65;;;;;;;;;;5092201;28;20036;-69
2022/03/10 13:44:35;;;;;;;22.42;14.38;;;;;;;;;;5092196;28;20105;-69
2022/03/10 13:47:04;;;;;;;21.58;14.00;;;;;;;;;;5092908;28;20361;-67
2022/03/10 13:49:40;;;;;;;22.95;15.25;;;;;;;;;;5091953;28;20479;-68
2022/03/10 13:52:10;;;;;;;21.50;13.63;;;;;;;;;;5093217;28;20032;-68
2022/03/10 13:54:38;;;;;;;22.02;14.40;;;;;;;;;;5092656;28;20040;-66
2022/03/10 13:57:04;;;;;;;22.05;14.20;;;;;;;;;;5093372;28;20040;-67
2022/03/10 13:59:31;;;;;;;22.52;15.15;;;;;;;;;;5092024;28;20126;-67
2022/03/10 14:01:57;;;;;;;22.00;13.77;;;;;;;;;;5092403;28;20433;-67
2022/03/10 14:04:23;;;;;;;21.98;13.68;;;;;;;;;;5093741;28;20591;-69
2022/03/10 14:06:54;;;;;;;21.40;13.88;;;;;;;;;;5093776;28;20047;-68
2022/03/10 14:09:25;;;;;;;23.40;14.43;;;;;;;;;;5092883;28;20048;-68
2022/03/10 14:11:51;;;;;;;23.33;13.80;;;;;;;;;;5093369;28;20127;-68
2022/03/10 14:14:38;;;;;;;19.92;14.18;;;;;;;;;;5092618;28;20036;-67
2022/03/10 14:17:04;;;;;;;21.73;14.18;;;;;;;;;;5091705;28;20090;-67
2022/03/10 14:19:34;;;;;;;19.95;14.20;;;;;;;;;;5093035;28;20050;-68
2022/03/10 14:22:00;;;;;;;25.00;15.65;;;;;;;;;;5092451;28;20490;-68
2022/03/10 14:24:28;;;;;;;21.10;14.57;;;;;;;;;;5091803;28;20683;-70